Westhampton, Virginia
Current Conditions -  °F | °C
As of 5:54 PM on Friday 19 Dec 2014 (Local Time) from KOFP Reporting Station
Clear Clear  
Wind Chill: 37°   Ceiling: Unl
Heat Index: 37°   Visibility: 10mi
Dew Point: 24°   Wind: 3mph
Humidity: 59%   Direction: NA
Pressure: 30.2"   Gusts: NA
Location:  37.5803°N, 77.5202°W
Report Text: KOFP 192254Z AUTO VRB03KT 10SM CLR 03/M04 A3020 RMK AO2 SLP227 T00281044
Loading
Personal Weather Stations






























Interactive Weather Map New forecast layout! Learn more

10-Day Weather Forecast

Advertisements
Track Severe Weather on mobile